»·PEaware :: QXE2019 KPDX-KRDM

QXE2019 :: KPDX-KRDM

FLIGHT INFORMATION

Flight Status: Arrived
Operator:
Horizon Air
More flights by this operator :: More flights under this callsign
Pilot: Chad G. (1197)
Aircraft: DEHAVILLAND DASH 8 400
(DH8D)
More flights by this aircraft type
Origin: KPDX Portland Intl
United States
Destination: KRDM Roberts
United States
More flights between these airports :: More routes between these airports
Route: +PTLD1 CUKIS T302 CUPRI
File this flight plan on PilotEdge
Remarks:
Altitude:
(Current/Filed)
17,000ft
Speed:
(Current/Filed)
311kts
Departed: 10-Mar-19 08:16 PM
Arrived: 10-Mar-19 08:42 PM
Distance/Time
Traveled:
101nm/0:26
Distance/Time
To Go:
Arrived

Flight Plot

Page will automatically refresh every two minutes.

Flight plan parsing failed; only flown route is shown


Map Options




Map Legend


Flown Route
Filed Route
Departure Airport
Arrival Airport
Navaid (VOR, NDB)
Fix

Horizontal Profiles

Position Reports

Time Latitude Longitude Heading Altitude Ground
Speed
10-Mar-19 19:19 45.585663 -122.591657 68 37ft 0kts
10-Mar-19 19:20 45.585663 -122.591657 68 37ft 0kts
10-Mar-19 19:21 45.585663 -122.591657 68 37ft 0kts
10-Mar-19 19:22 45.585663 -122.591657 68 37ft 0kts
10-Mar-19 19:23 45.585663 -122.591657 68 37ft 0kts
10-Mar-19 19:24 45.585663 -122.591657 68 37ft 0kts
10-Mar-19 19:25 45.585663 -122.591657 68 37ft 0kts
10-Mar-19 19:26 45.585663 -122.591657 68 37ft 0kts
10-Mar-19 19:27 45.585663 -122.591657 68 37ft 0kts
10-Mar-19 19:28 45.585663 -122.591657 68 37ft 0kts
10-Mar-19 19:29 45.585663 -122.591657 68 37ft 0kts
10-Mar-19 19:30 45.585663 -122.591657 68 37ft 0kts
10-Mar-19 19:31 45.585663 -122.591657 68 37ft 0kts
10-Mar-19 19:32 45.585663 -122.591657 68 37ft 0kts
10-Mar-19 19:33 45.585663 -122.591657 68 37ft 0kts
10-Mar-19 19:34 45.585663 -122.591657 68 37ft 0kts
10-Mar-19 19:35 45.585663 -122.591657 68 37ft 0kts
10-Mar-19 19:36 45.585663 -122.591657 68 37ft 0kts
10-Mar-19 19:37 45.585663 -122.591657 68 37ft 0kts
10-Mar-19 19:38 45.585663 -122.591657 68 37ft 0kts
10-Mar-19 19:39 45.585663 -122.591657 68 37ft 0kts
10-Mar-19 19:40 45.585663 -122.591657 68 37ft 0kts
10-Mar-19 19:41 45.585663 -122.591657 68 37ft 0kts
10-Mar-19 19:42 45.585663 -122.591657 68 37ft 0kts
10-Mar-19 19:43 45.585663 -122.591657 68 37ft 0kts
10-Mar-19 19:44 45.585663 -122.591657 68 37ft 0kts
10-Mar-19 19:45 45.585663 -122.591657 68 37ft 0kts
10-Mar-19 19:46 45.585663 -122.591657 68 37ft 0kts
10-Mar-19 19:47 45.585663 -122.591657 68 37ft 0kts
10-Mar-19 19:48 45.585663 -122.591657 68 37ft 0kts
10-Mar-19 19:49 45.585663 -122.591657 68 37ft 0kts
10-Mar-19 19:50 45.585663 -122.591657 68 37ft 0kts
10-Mar-19 19:51 45.585663 -122.591657 68 37ft 0kts
10-Mar-19 19:52 45.585663 -122.591657 68 37ft 0kts
10-Mar-19 19:53 45.585663 -122.591657 68 37ft 0kts
10-Mar-19 19:54 45.585663 -122.591657 68 37ft 0kts
10-Mar-19 19:55 45.585663 -122.591657 68 37ft 0kts
10-Mar-19 19:56 45.585663 -122.591657 68 37ft 0kts
10-Mar-19 19:57 45.585663 -122.591657 68 37ft 0kts
10-Mar-19 19:58 45.585663 -122.591657 68 37ft 0kts
10-Mar-19 19:59 45.585663 -122.591657 68 37ft 0kts
10-Mar-19 20:00 45.585663 -122.591657 68 37ft 0kts
10-Mar-19 20:01 45.585663 -122.591657 68 37ft 0kts
10-Mar-19 20:02 45.585633 -122.591767 68 37ft 0kts
10-Mar-19 20:03 45.585633 -122.591767 68 37ft 0kts
10-Mar-19 20:04 45.585270 -122.591939 308 37ft 0kts
10-Mar-19 20:05 45.585270 -122.591939 308 37ft 0kts
10-Mar-19 20:06 45.585270 -122.591939 308 37ft 0kts
10-Mar-19 20:07 45.585326 -122.592042 307 37ft 1kts
10-Mar-19 20:08 45.585400 -122.592183 306 38ft 6kts
10-Mar-19 20:09 45.587553 -122.596607 299 38ft 14kts
10-Mar-19 20:10 45.589494 -122.601699 276 37ft 12kts
10-Mar-19 20:11 45.591223 -122.606547 302 38ft 20kts
10-Mar-19 20:12 45.593702 -122.612900 299 38ft 17kts
10-Mar-19 20:13 45.596164 -122.619224 298 38ft 11kts
10-Mar-19 20:14 45.595966 -122.620631 207 38ft 5kts
10-Mar-19 20:15 45.592904 -122.615648 118 38ft 100kts
10-Mar-19 20:16 45.573080 -122.565562 119 2434ft 169kts
10-Mar-19 20:18 45.538574 -122.507674 149 5015ft 218kts
10-Mar-19 20:19 45.478881 -122.461600 150 7450ft 251kts
10-Mar-19 20:20 45.414747 -122.412463 151 10087ft 259kts
10-Mar-19 20:21 45.347421 -122.358852 136 11899ft 278kts
10-Mar-19 20:22 45.294094 -122.269958 126 13472ft 288kts
10-Mar-19 20:23 45.241163 -122.180373 126 15009ft 290kts
10-Mar-19 20:24 45.187121 -122.089537 125 16367ft 295kts
10-Mar-19 20:25 45.130830 -121.994905 124 16985ft 316kts
10-Mar-19 20:26 45.070507 -121.893724 125 17015ft 337kts
10-Mar-19 20:27 45.007071 -121.788347 125 17019ft 346kts
10-Mar-19 20:28 44.942666 -121.681869 126 17021ft 350kts
10-Mar-19 20:29 44.869289 -121.584567 132 17025ft 354kts
10-Mar-19 20:30 44.797118 -121.490107 131 16526ft 338kts
10-Mar-19 20:31 44.728366 -121.398429 132 14566ft 330kts
10-Mar-19 20:32 44.660085 -121.308367 134 13120ft 320kts
10-Mar-19 20:33 44.584727 -121.243566 165 13007ft 321kts
10-Mar-19 20:34 44.496662 -121.219049 166 12997ft 318kts
10-Mar-19 20:35 44.417647 -121.165559 144 11855ft 311kts
10-Mar-19 20:36 44.363196 -121.084732 96 9257ft 282kts
10-Mar-19 20:36 44.365079 -120.998610 106 7808ft 239kts
10-Mar-19 20:38 44.307945 -120.985561 236 6236ft 215kts
10-Mar-19 20:39 44.290176 -121.062648 239 4483ft 184kts
10-Mar-19 20:39 44.272433 -121.105549 238 3615ft 117kts
10-Mar-19 20:40 44.255992 -121.145910 237 3086ft 105kts
10-Mar-19 20:42 44.251541 -121.158972 331 3085ft 5kts
10-Mar-19 20:42 44.252388 -121.160276 248 3085ft 3kts
10-Mar-19 20:43 44.252436 -121.160865 279 3084ft 0kts

Navigation Log

Ident Type
Flight plan parsing failed, navigation log unavailable